Time;durP1;ratioP1;P1;durP2;ratioP2;P2;SDS_P1;SDS_P2;PMS_P1;PMS_P2;Temp;Humidity;BMP_temperature;BMP_pressure;BME280_temperature;BME280_humidity;BME280_pressure;Samples;Min_cycle;Max_cycle;Signal;HPM_P1;HPM_P2
2022/05/12 00:00:25;;;;;;;6.47;3.60;;;;;;;;;;5038991;28;20356;-72
2022/05/12 00:02:51;;;;;;;4.50;3.22;;;;;;;;;;5035697;28;20030;-72
2022/05/12 00:05:18;;;;;;;4.88;3.50;;;;;;;;;;5039237;28;20105;-72
2022/05/12 00:07:44;;;;;;;7.80;3.58;;;;;;;;;;5053372;28;20027;-72
2022/05/12 00:10:12;;;;;;;5.45;3.47;;;;;;;;;;5038622;28;20036;-73
2022/05/12 00:12:38;;;;;;;8.57;3.90;;;;;;;;;;5035361;28;20042;-72
2022/05/12 00:15:06;;;;;;;5.85;3.63;;;;;;;;;;5036469;28;20109;-72
2022/05/12 00:17:33;;;;;;;5.70;3.40;;;;;;;;;;5033685;28;20034;-72
2022/05/12 00:20:00;;;;;;;5.47;3.65;;;;;;;;;;5038150;28;20021;-72
2022/05/12 00:22:26;;;;;;;6.95;3.72;;;;;;;;;;5038749;28;20067;-72
2022/05/12 00:24:52;;;;;;;6.72;3.75;;;;;;;;;;5038471;28;20025;-71
2022/05/12 00:27:18;;;;;;;6.28;4.00;;;;;;;;;;5044134;28;20025;-72
2022/05/12 00:29:44;;;;;;;4.93;3.58;;;;;;;;;;5051090;28;20021;-72
2022/05/12 00:32:11;;;;;;;4.55;3.50;;;;;;;;;;5036408;28;20036;-72
2022/05/12 00:34:37;;;;;;;5.60;3.42;;;;;;;;;;5040519;28;20111;-72
2022/05/12 00:37:03;;;;;;;5.85;3.50;;;;;;;;;;5033245;28;20038;-72
2022/05/12 00:39:29;;;;;;;7.07;3.88;;;;;;;;;;5034534;28;20036;-72
2022/05/12 00:41:55;;;;;;;6.20;4.00;;;;;;;;;;5036041;28;20033;-72
2022/05/12 00:44:21;;;;;;;5.43;3.70;;;;;;;;;;5033379;28;20030;-72
2022/05/12 00:46:50;;;;;;;9.43;3.97;;;;;;;;;;5037960;28;20021;-72
2022/05/12 00:49:32;;;;;;;6.47;3.95;;;;;;;;;;5040326;28;20033;-72
2022/05/12 00:52:12;;;;;;;9.07;4.00;;;;;;;;;;5033998;28;20108;-72
2022/05/12 00:54:44;;;;;;;6.15;4.18;;;;;;;;;;5045874;28;20391;-72
2022/05/12 00:57:13;;;;;;;7.65;4.20;;;;;;;;;;5040707;28;20027;-72
2022/05/12 00:59:39;;;;;;;8.13;3.97;;;;;;;;;;5032647;28;20032;-72
2022/05/12 01:02:08;;;;;;;8.52;3.80;;;;;;;;;;5035683;28;20068;-72
2022/05/12 01:04:34;;;;;;;8.32;4.47;;;;;;;;;;5032747;28;20383;-73
2022/05/12 01:07:01;;;;;;;9.18;4.18;;;;;;;;;;5036525;28;20095;-72
2022/05/12 01:09:28;;;;;;;13.02;4.90;;;;;;;;;;5050839;28;20138;-72
2022/05/12 01:11:54;;;;;;;6.53;3.92;;;;;;;;;;5048300;28;20033;-71
2022/05/12 01:14:20;;;;;;;6.97;4.35;;;;;;;;;;5034867;28;20025;-71
2022/05/12 01:16:53;;;;;;;6.18;4.15;;;;;;;;;;5033410;28;20034;-72
2022/05/12 01:19:23;;;;;;;5.75;4.03;;;;;;;;;;5047922;28;20021;-72
2022/05/12 01:21:50;;;;;;;7.05;3.90;;;;;;;;;;5043750;28;20483;-72
2022/05/12 01:24:18;;;;;;;9.43;4.10;;;;;;;;;;5034335;28;20029;-72
2022/05/12 01:26:44;;;;;;;6.10;3.75;;;;;;;;;;5044215;28;20049;-72
2022/05/12 01:29:10;;;;;;;8.93;4.15;;;;;;;;;;5033394;28;20027;-71
2022/05/12 01:31:37;;;;;;;7.80;4.22;;;;;;;;;;5039275;28;20037;-72
2022/05/12 01:34:04;;;;;;;5.93;4.20;;;;;;;;;;5043900;28;20033;-71
2022/05/12 01:36:30;;;;;;;6.30;3.90;;;;;;;;;;5038215;28;20025;-72
2022/05/12 01:38:56;;;;;;;6.93;4.00;;;;;;;;;;5032597;28;20499;-72
2022/05/12 01:41:23;;;;;;;6.43;3.90;;;;;;;;;;5047981;28;20398;-72
2022/05/12 01:43:49;;;;;;;6.57;4.10;;;;;;;;;;5044005;28;20025;-72
2022/05/12 01:46:15;;;;;;;8.75;4.03;;;;;;;;;;5036172;28;20029;-71
2022/05/12 01:48:41;;;;;;;7.68;4.20;;;;;;;;;;5035195;28;20224;-71
2022/05/12 01:51:07;;;;;;;5.88;3.70;;;;;;;;;;5046232;28;20146;-71
2022/05/12 01:53:34;;;;;;;5.38;3.63;;;;;;;;;;5032389;28;20037;-72
2022/05/12 01:56:00;;;;;;;6.13;3.85;;;;;;;;;;5039672;28;20082;-72
2022/05/12 01:58:26;;;;;;;5.40;3.58;;;;;;;;;;5042527;28;20072;-71
2022/05/12 02:00:52;;;;;;;4.97;3.95;;;;;;;;;;5046867;28;20022;-72
2022/05/12 02:03:18;;;;;;;6.35;3.80;;;;;;;;;;5050657;28;20483;-72
2022/05/12 02:05:45;;;;;;;4.65;3.80;;;;;;;;;;5041104;28;20041;-73
2022/05/12 02:08:12;;;;;;;9.52;3.85;;;;;;;;;;5039344;28;20025;-71
2022/05/12 02:10:40;;;;;;;5.40;3.78;;;;;;;;;;5036356;28;20021;-72
2022/05/12 02:13:08;;;;;;;6.43;3.65;;;;;;;;;;5041735;28;20032;-72
2022/05/12 02:15:34;;;;;;;7.88;3.70;;;;;;;;;;5036984;28;20021;-72
2022/05/12 02:18:00;;;;;;;6.82;3.92;;;;;;;;;;5041547;28;20083;-72
2022/05/12 02:20:27;;;;;;;12.70;4.28;;;;;;;;;;5036230;28;20018;-72
2022/05/12 02:22:53;;;;;;;6.53;3.47;;;;;;;;;;5038251;28;20029;-72
2022/05/12 02:25:19;;;;;;;6.15;3.42;;;;;;;;;;5043291;28;20100;-72
2022/05/12 02:27:46;;;;;;;4.85;3.42;;;;;;;;;;5047268;28;20025;-72
2022/05/12 02:30:16;;;;;;;4.85;3.50;;;;;;;;;;5049161;28;20056;-72
2022/05/12 02:32:42;;;;;;;5.57;3.50;;;;;;;;;;5045638;28;20438;-72
2022/05/12 02:35:09;;;;;;;5.18;3.53;;;;;;;;;;5051837;28;20028;-72
2022/05/12 02:37:35;;;;;;;5.45;3.50;;;;;;;;;;5050572;28;20036;-72
2022/05/12 02:40:01;;;;;;;5.70;3.40;;;;;;;;;;5044173;28;20025;-72
2022/05/12 02:42:27;;;;;;;7.07;3.70;;;;;;;;;;5042859;28;20120;-72
2022/05/12 02:44:53;;;;;;;8.25;3.60;;;;;;;;;;5046186;28;20028;-72
2022/05/12 02:47:19;;;;;;;9.52;3.88;;;;;;;;;;5035831;28;20029;-71
2022/05/12 02:49:45;;;;;;;6.10;3.95;;;;;;;;;;5036378;28;20021;-72
2022/05/12 02:52:11;;;;;;;5.63;3.78;;;;;;;;;;5035430;28;20113;-71
2022/05/12 02:54:37;;;;;;;5.90;3.70;;;;;;;;;;5040400;28;20021;-73
2022/05/12 02:57:04;;;;;;;6.28;3.70;;;;;;;;;;5046712;28;20021;-71
2022/05/12 02:59:30;;;;;;;5.45;3.70;;;;;;;;;;5035190;28;20033;-72
2022/05/12 03:01:58;;;;;;;5.30;3.90;;;;;;;;;;5042231;28;20029;-71
2022/05/12 03:04:24;;;;;;;7.60;3.47;;;;;;;;;;5050977;28;20104;-73
2022/05/12 03:06:51;;;;;;;6.13;3.70;;;;;;;;;;5043310;28;20037;-72
2022/05/12 03:09:17;;;;;;;9.40;3.90;;;;;;;;;;5052612;28;20036;-72
2022/05/12 03:11:43;;;;;;;5.65;3.90;;;;;;;;;;5042798;28;20044;-72
2022/05/12 03:14:09;;;;;;;8.65;4.10;;;;;;;;;;5035111;28;20079;-72
2022/05/12 03:16:36;;;;;;;7.50;4.03;;;;;;;;;;5044805;28;20152;-72
2022/05/12 03:19:02;;;;;;;10.15;4.40;;;;;;;;;;5041352;28;20030;-72
2022/05/12 03:21:28;;;;;;;15.18;6.32;;;;;;;;;;5043243;28;20025;-71
2022/05/12 03:23:54;;;;;;;8.63;4.30;;;;;;;;;;5038733;28;20017;-71
2022/05/12 03:26:20;;;;;;;7.70;4.00;;;;;;;;;;5052051;28;20029;-72
2022/05/12 03:28:46;;;;;;;6.57;4.18;;;;;;;;;;5038820;28;20497;-72
2022/05/12 03:31:13;;;;;;;6.60;3.95;;;;;;;;;;5034854;28;20031;-72
2022/05/12 03:33:39;;;;;;;5.93;3.92;;;;;;;;;;5044159;28;20063;-72
2022/05/12 03:36:06;;;;;;;4.95;3.65;;;;;;;;;;5041279;28;20438;-71
2022/05/12 03:38:33;;;;;;;5.97;4.05;;;;;;;;;;5040834;28;20233;-72
2022/05/12 03:40:59;;;;;;;7.65;4.30;;;;;;;;;;5036570;28;20024;-72
2022/05/12 03:46:13;;;;;;;7.78;4.65;;;;;;;;;;5035347;28;20121;-73
2022/05/12 03:48:40;;;;;;;7.63;4.72;;;;;;;;;;5044443;28;20025;-72
2022/05/12 03:51:06;;;;;;;8.23;4.38;;;;;;;;;;5038063;28;20033;-71
2022/05/12 03:53:33;;;;;;;8.40;4.65;;;;;;;;;;5039207;28;20056;-72
2022/05/12 03:55:59;;;;;;;8.60;4.80;;;;;;;;;;5041775;28;20013;-72
2022/05/12 03:58:25;;;;;;;11.30;4.90;;;;;;;;;;5039522;28;20040;-73
2022/05/12 04:00:52;;;;;;;12.88;4.90;;;;;;;;;;5037118;28;20021;-72
2022/05/12 04:03:18;;;;;;;8.23;5.10;;;;;;;;;;5036332;28;20143;-73
2022/05/12 04:05:44;;;;;;;7.68;4.75;;;;;;;;;;5042171;28;20059;-71
2022/05/12 04:08:10;;;;;;;8.02;4.78;;;;;;;;;;5049703;28;20096;-72
2022/05/12 04:10:37;;;;;;;7.75;5.32;;;;;;;;;;5043724;28;20033;-72
2022/05/12 04:13:03;;;;;;;9.88;4.97;;;;;;;;;;5047461;28;20078;-72
2022/05/12 04:15:29;;;;;;;10.55;4.97;;;;;;;;;;5038871;28;20026;-72
2022/05/12 04:17:57;;;;;;;11.05;4.72;;;;;;;;;;5039776;28;20036;-73
2022/05/12 04:20:24;;;;;;;11.90;4.90;;;;;;;;;;5037114;28;20033;-73
2022/05/12 04:22:50;;;;;;;9.98;4.80;;;;;;;;;;5040724;28;20368;-73
2022/05/12 04:25:17;;;;;;;9.70;4.90;;;;;;;;;;5041170;28;20029;-72
2022/05/12 04:27:43;;;;;;;7.40;4.65;;;;;;;;;;5039786;28;20029;-73
2022/05/12 04:30:11;;;;;;;9.25;4.63;;;;;;;;;;5037248;28;20418;-72
2022/05/12 04:32:37;;;;;;;11.45;4.80;;;;;;;;;;5044863;28;20043;-72
2022/05/12 04:35:14;;;;;;;8.63;5.03;;;;;;;;;;5049572;28;20120;-71
2022/05/12 04:37:47;;;;;;;10.80;5.10;;;;;;;;;;5044469;28;20022;-72
2022/05/12 04:40:24;;;;;;;8.48;4.78;;;;;;;;;;5041437;28;20107;-73
2022/05/12 04:42:51;;;;;;;12.38;5.45;;;;;;;;;;5036841;28;20021;-72
2022/05/12 04:45:18;;;;;;;9.35;5.20;;;;;;;;;;5035275;28;20053;-72
2022/05/12 04:47:45;;;;;;;11.65;5.80;;;;;;;;;;5041395;28;20029;-72
2022/05/12 04:50:14;;;;;;;13.55;7.75;;;;;;;;;;5039835;28;20021;-72
2022/05/12 04:52:40;;;;;;;11.40;5.22;;;;;;;;;;5043153;28;20111;-73
2022/05/12 04:55:07;;;;;;;9.00;4.43;;;;;;;;;;5038626;28;20052;-75
2022/05/12 04:57:38;;;;;;;10.32;5.10;;;;;;;;;;5037648;28;20148;-74
2022/05/12 05:00:05;;;;;;;28.10;5.63;;;;;;;;;;5043427;28;20108;-74
2022/05/12 05:02:31;;;;;;;9.40;4.82;;;;;;;;;;5038511;28;20029;-76
2022/05/12 05:04:57;;;;;;;9.68;4.47;;;;;;;;;;5035721;28;20025;-74
2022/05/12 05:07:26;;;;;;;14.00;4.95;;;;;;;;;;5039026;28;20116;-73
2022/05/12 05:09:53;;;;;;;9.40;4.80;;;;;;;;;;5040712;28;20045;-74
2022/05/12 05:12:19;;;;;;;7.57;4.35;;;;;;;;;;5045555;28;20124;-84
2022/05/12 05:14:45;;;;;;;10.10;5.20;;;;;;;;;;5032743;28;20032;-77
2022/05/12 05:17:11;;;;;;;10.10;4.78;;;;;;;;;;5044348;28;20028;-72
2022/05/12 05:19:38;;;;;;;10.60;4.88;;;;;;;;;;5049527;28;20043;-71
2022/05/12 05:22:04;;;;;;;8.07;4.78;;;;;;;;;;5044143;28;20389;-70
2022/05/12 05:24:30;;;;;;;8.00;4.55;;;;;;;;;;5040899;28;20039;-72
2022/05/12 05:26:56;;;;;;;17.77;5.70;;;;;;;;;;5041399;28;20045;-74
2022/05/12 05:29:22;;;;;;;49.97;7.03;;;;;;;;;;5049405;28;20433;-70
2022/05/12 05:31:49;;;;;;;14.30;6.03;;;;;;;;;;5032273;28;20529;-76
2022/05/12 05:34:16;;;;;;;15.30;7.07;;;;;;;;;;5039575;28;20028;-74
2022/05/12 05:36:44;;;;;;;8.95;5.07;;;;;;;;;;5035347;28;20025;-85
2022/05/12 05:39:30;;;;;;;9.88;4.18;;;;;;;;;;5035274;28;20156;-74
2022/05/12 05:41:58;;;;;;;9.95;4.63;;;;;;;;;;5040240;28;20025;-78
2022/05/12 05:44:24;;;;;;;9.38;4.05;;;;;;;;;;5042600;28;20021;-72
2022/05/12 05:46:51;;;;;;;10.85;6.00;;;;;;;;;;5034804;28;20036;-74
2022/05/12 05:49:17;;;;;;;13.13;6.53;;;;;;;;;;5041625;28;20048;-81
2022/05/12 05:54:31;;;;;;;9.77;4.70;;;;;;;;;;5046248;28;20183;-88
2022/05/12 05:56:57;;;;;;;56.80;35.53;;;;;;;;;;5034855;28;20033;-80
2022/05/12 05:59:23;;;;;;;7.93;4.40;;;;;;;;;;5042860;28;20037;-74
2022/05/12 06:01:50;;;;;;;9.57;4.60;;;;;;;;;;5036879;28;20260;-80
2022/05/12 06:04:17;;;;;;;12.32;5.40;;;;;;;;;;5039043;28;20147;-77
2022/05/12 06:06:44;;;;;;;11.68;4.57;;;;;;;;;;5035339;28;20132;-76
2022/05/12 06:09:12;;;;;;;25.83;5.57;;;;;;;;;;5044790;28;20396;-79
2022/05/12 06:11:38;;;;;;;16.20;5.18;;;;;;;;;;5036575;28;20518;-77
2022/05/12 06:14:04;;;;;;;10.30;5.88;;;;;;;;;;5035570;28;20029;-75
2022/05/12 06:16:31;;;;;;;8.00;4.07;;;;;;;;;;5037029;28;20030;-76
2022/05/12 06:18:57;;;;;;;8.43;4.22;;;;;;;;;;5037034;28;20029;-76
2022/05/12 06:21:23;;;;;;;22.05;5.20;;;;;;;;;;5033381;28;20042;-76
2022/05/12 06:23:49;;;;;;;8.32;3.78;;;;;;;;;;5036283;28;20414;-75
2022/05/12 06:26:16;;;;;;;10.32;4.03;;;;;;;;;;5035249;28;20026;-74
2022/05/12 06:28:45;;;;;;;9.88;4.55;;;;;;;;;;5045377;28;20028;-82
2022/05/12 06:31:13;;;;;;;7.15;3.65;;;;;;;;;;5038273;28;20029;-75
2022/05/12 06:33:40;;;;;;;7.20;4.13;;;;;;;;;;5038062;28;20107;-75
2022/05/12 06:36:07;;;;;;;8.15;3.78;;;;;;;;;;5036666;28;20479;-77
2022/05/12 06:38:34;;;;;;;6.40;3.80;;;;;;;;;;5042880;28;20036;-75
2022/05/12 06:41:00;;;;;;;14.77;4.80;;;;;;;;;;5039966;28;20068;-76
2022/05/12 06:43:29;;;;;;;7.80;3.80;;;;;;;;;;5041575;28;20372;-77
2022/05/12 06:45:56;;;;;;;10.77;4.22;;;;;;;;;;5039715;28;20036;-72
2022/05/12 06:48:23;;;;;;;9.85;4.53;;;;;;;;;;5044366;28;20490;-74
2022/05/12 06:50:49;;;;;;;6.88;4.57;;;;;;;;;;5048821;28;20110;-75
2022/05/12 06:53:15;;;;;;;15.73;5.13;;;;;;;;;;5045763;28;20040;-72
2022/05/12 06:55:41;;;;;;;27.05;12.73;;;;;;;;;;5044785;28;20040;-76
2022/05/12 06:58:07;;;;;;;28.00;11.15;;;;;;;;;;5038853;28;20033;-82
2022/05/12 07:00:34;;;;;;;23.20;9.35;;;;;;;;;;5042080;28;20025;-77
2022/05/12 07:03:00;;;;;;;14.52;5.90;;;;;;;;;;5041430;28;20021;-80
2022/05/12 07:05:26;;;;;;;11.00;4.50;;;;;;;;;;5043346;28;20027;-81
2022/05/12 07:07:53;;;;;;;9.40;4.72;;;;;;;;;;5036663;28;20094;-76
2022/05/12 07:10:20;;;;;;;15.43;5.18;;;;;;;;;;5042797;28;20104;-91
2022/05/12 07:12:47;;;;;;;8.77;4.72;;;;;;;;;;5040916;28;20077;-74
2022/05/12 07:15:13;;;;;;;9.27;4.60;;;;;;;;;;5042695;28;20053;-75
2022/05/12 07:17:43;;;;;;;6.70;4.13;;;;;;;;;;5048432;28;20065;-81
2022/05/12 07:28:25;;;;;;;12.18;4.68;;;;;;;;;;5046001;28;20041;-79
2022/05/12 07:31:01;;;;;;;10.05;4.10;;;;;;;;;;5041231;28;20112;-81
2022/05/12 07:33:47;;;;;;;7.75;4.13;;;;;;;;;;5043687;28;20037;-85
2022/05/12 07:36:18;;;;;;;8.98;3.78;;;;;;;;;;5039192;28;20026;-79
2022/05/12 07:38:45;;;;;;;8.75;4.20;;;;;;;;;;5039725;28;20021;-75
2022/05/12 07:41:12;;;;;;;11.48;5.20;;;;;;;;;;5039899;28;20040;-77
2022/05/12 07:43:42;;;;;;;10.05;4.35;;;;;;;;;;5043639;28;20029;-77
2022/05/12 07:46:08;;;;;;;8.30;4.30;;;;;;;;;;5041293;28;20502;-77
2022/05/12 07:48:35;;;;;;;10.32;4.47;;;;;;;;;;5038491;28;20037;-74
2022/05/12 07:51:01;;;;;;;16.13;10.15;;;;;;;;;;5040154;28;20022;-75
2022/05/12 07:53:27;;;;;;;16.08;7.60;;;;;;;;;;5047481;28;20119;-75
2022/05/12 07:55:53;;;;;;;13.38;7.03;;;;;;;;;;5033303;28;20037;-78
2022/05/12 07:58:19;;;;;;;20.08;9.75;;;;;;;;;;5037723;28;20064;-75
2022/05/12 08:00:46;;;;;;;17.85;10.48;;;;;;;;;;5039205;28;20049;-78
2022/05/12 08:03:12;;;;;;;9.57;5.00;;;;;;;;;;5042218;28;20072;-81
2022/05/12 08:05:38;;;;;;;6.03;4.00;;;;;;;;;;5038391;28;20041;-75
2022/05/12 08:08:05;;;;;;;9.15;5.65;;;;;;;;;;5041742;28;20107;-76
2022/05/12 08:10:32;;;;;;;11.05;6.55;;;;;;;;;;5040672;28;20099;-78
2022/05/12 08:12:58;;;;;;;14.52;8.40;;;;;;;;;;5042108;28;20033;-80
2022/05/12 08:15:25;;;;;;;7.97;5.28;;;;;;;;;;5035066;28;20479;-77
2022/05/12 08:17:54;;;;;;;8.23;5.47;;;;;;;;;;5039251;28;20048;-74
2022/05/12 08:20:20;;;;;;;10.93;6.28;;;;;;;;;;5036305;28;20475;-81
2022/05/12 08:22:46;;;;;;;10.00;5.50;;;;;;;;;;5036687;28;20025;-74
2022/05/12 08:25:13;;;;;;;11.85;6.13;;;;;;;;;;5037285;28;20032;-76
2022/05/12 08:27:40;;;;;;;6.60;4.70;;;;;;;;;;5036039;28;20102;-78
2022/05/12 08:30:07;;;;;;;10.23;4.95;;;;;;;;;;5039334;28;20497;-75
2022/05/12 08:32:33;;;;;;;16.17;5.57;;;;;;;;;;5037263;28;20034;-77
2022/05/12 08:35:00;;;;;;;14.85;5.25;;;;;;;;;;5038519;28;20430;-78
2022/05/12 08:37:26;;;;;;;9.30;4.72;;;;;;;;;;5039883;28;20101;-85
2022/05/12 08:39:52;;;;;;;11.60;5.10;;;;;;;;;;5035042;28;20045;-86
2022/05/12 08:42:28;;;;;;;10.60;4.55;;;;;;;;;;5039697;28;20517;-86
2022/05/12 08:44:55;;;;;;;11.93;5.80;;;;;;;;;;5040002;28;20024;-79
2022/05/12 08:47:29;;;;;;;11.73;5.50;;;;;;;;;;5039386;28;20498;-82
2022/05/12 08:49:55;;;;;;;11.07;5.80;;;;;;;;;;5033756;28;20021;-76
2022/05/12 08:52:25;;;;;;;9.35;6.00;;;;;;;;;;5035679;28;20091;-81
2022/05/12 08:55:02;;;;;;;9.40;5.40;;;;;;;;;;5033683;28;20062;-84
2022/05/12 08:57:38;;;;;;;21.15;8.80;;;;;;;;;;5036887;28;20364;-77
2022/05/12 09:00:06;;;;;;;20.55;7.15;;;;;;;;;;5033819;28;20055;-84
2022/05/12 09:02:32;;;;;;;13.50;7.10;;;;;;;;;;5035911;28;20032;-82
2022/05/12 09:05:02;;;;;;;10.32;4.75;;;;;;;;;;5031707;28;20021;-82
2022/05/12 09:07:28;;;;;;;10.80;5.53;;;;;;;;;;5040761;28;20076;-82
2022/05/12 09:10:13;;;;;;;11.15;5.38;;;;;;;;;;5039635;28;20364;-83
2022/05/12 09:13:02;;;;;;;7.78;3.97;;;;;;;;;;5045017;28;20037;-85
2022/05/12 09:15:28;;;;;;;10.35;4.78;;;;;;;;;;5033676;28;20364;-90
2022/05/12 09:17:59;;;;;;;9.73;4.20;;;;;;;;;;5034402;28;20479;-72
2022/05/12 09:20:26;;;;;;;8.82;4.68;;;;;;;;;;5039848;28;20049;-86
2022/05/12 09:22:52;;;;;;;10.57;4.07;;;;;;;;;;5033688;28;20036;-72
2022/05/12 09:25:48;;;;;;;9.40;4.70;;;;;;;;;;5035277;28;20022;-80
2022/05/12 09:28:19;;;;;;;9.40;4.30;;;;;;;;;;5022725;28;20546;-82
2022/05/12 09:30:46;;;;;;;8.27;4.05;;;;;;;;;;5021182;28;20116;-84
2022/05/12 09:33:22;;;;;;;7.78;4.10;;;;;;;;;;5021597;28;20049;-72
2022/05/12 09:35:56;;;;;;;6.93;4.03;;;;;;;;;;5019031;28;20025;-79
2022/05/12 09:38:25;;;;;;;9.07;4.38;;;;;;;;;;5026800;28;20511;-90
2022/05/12 09:40:51;;;;;;;8.48;4.43;;;;;;;;;;5020691;28;20034;-86
2022/05/12 09:43:29;;;;;;;8.20;4.22;;;;;;;;;;5021852;28;20040;-88
2022/05/12 09:46:14;;;;;;;10.85;4.43;;;;;;;;;;5023604;28;20077;-86
2022/05/12 09:48:40;;;;;;;21.27;5.43;;;;;;;;;;5028391;28;20073;-86
2022/05/12 09:51:25;;;;;;;11.35;4.82;;;;;;;;;;5020864;28;20038;-75
2022/05/12 09:53:52;;;;;;;7.63;4.45;;;;;;;;;;5023155;28;20100;-76
2022/05/12 09:56:36;;;;;;;16.75;9.23;;;;;;;;;;5029733;28;20052;-72
2022/05/12 09:59:15;;;;;;;32.55;14.05;;;;;;;;;;5029688;28;20043;-87
2022/05/12 10:01:53;;;;;;;7.68;4.53;;;;;;;;;;5017122;28;20018;-89
2022/05/12 10:10:04;;;;;;;11.80;5.75;;;;;;;;;;5039105;28;20112;-78
2022/05/12 10:12:41;;;;;;;8.15;5.40;;;;;;;;;;5032074;28;20418;-77
2022/05/12 10:15:10;;;;;;;13.05;9.32;;;;;;;;;;5034570;28;20026;-87
2022/05/12 10:17:45;;;;;;;10.70;4.95;;;;;;;;;;5038691;28;20021;-88
2022/05/12 10:20:13;;;;;;;29.05;6.43;;;;;;;;;;5037052;28;20470;-86
2022/05/12 10:22:54;;;;;;;13.57;5.10;;;;;;;;;;5049110;28;20025;-89
2022/05/12 10:25:20;;;;;;;10.23;5.15;;;;;;;;;;5046445;28;20143;-80
2022/05/12 10:27:46;;;;;;;15.40;5.57;;;;;;;;;;5044652;28;20025;-87
2022/05/12 10:30:19;;;;;;;10.80;4.88;;;;;;;;;;5037144;28;20029;-79
2022/05/12 10:32:52;;;;;;;12.52;4.32;;;;;;;;;;5040911;28;20033;-78
2022/05/12 10:35:32;;;;;;;13.40;5.00;;;;;;;;;;5043152;28;20103;-76
2022/05/12 10:38:07;;;;;;;11.45;4.75;;;;;;;;;;5047925;28;20505;-75
2022/05/12 10:40:37;;;;;;;7.72;4.57;;;;;;;;;;5035840;28;20029;-80
2022/05/12 10:43:21;;;;;;;8.52;4.50;;;;;;;;;;5039145;28;20491;-77
2022/05/12 10:45:47;;;;;;;10.10;4.60;;;;;;;;;;5040272;28;20021;-75
2022/05/12 10:48:22;;;;;;;12.32;5.00;;;;;;;;;;5039123;28;20056;-79
2022/05/12 10:50:51;;;;;;;11.63;4.85;;;;;;;;;;5035379;28;20076;-74
2022/05/12 10:53:20;;;;;;;9.20;5.75;;;;;;;;;;5038732;28;20447;-80
2022/05/12 10:56:00;;;;;;;11.82;4.65;;;;;;;;;;5042248;28;20053;-80
2022/05/12 10:58:30;;;;;;;12.88;4.68;;;;;;;;;;5037013;28;20467;-80
2022/05/12 11:01:02;;;;;;;13.73;4.80;;;;;;;;;;5043247;28;20064;-81
2022/05/12 11:03:30;;;;;;;8.18;4.30;;;;;;;;;;5042469;28;20021;-76
2022/05/12 11:06:01;;;;;;;8.00;4.50;;;;;;;;;;5040987;28;20045;-77
2022/05/12 11:08:34;;;;;;;13.43;5.20;;;;;;;;;;5042767;28;20025;-78
2022/05/12 11:11:01;;;;;;;14.27;5.28;;;;;;;;;;5047555;28;20120;-80
2022/05/12 11:13:32;;;;;;;8.38;4.70;;;;;;;;;;5039257;28;20372;-80
2022/05/12 11:15:59;;;;;;;8.52;4.45;;;;;;;;;;5040767;28;20051;-77
2022/05/12 11:18:29;;;;;;;11.48;4.88;;;;;;;;;;5040302;28;20468;-75
2022/05/12 11:21:13;;;;;;;12.00;5.15;;;;;;;;;;5040755;28;20117;-74
2022/05/12 11:23:51;;;;;;;8.35;5.57;;;;;;;;;;5034775;28;20053;-78
2022/05/12 11:26:36;;;;;;;12.05;8.70;;;;;;;;;;5038823;28;20415;-79
2022/05/12 11:29:48;;;;;;;17.77;13.68;;;;;;;;;;5042000;28;20028;-81
2022/05/12 11:32:14;;;;;;;20.33;12.98;;;;;;;;;;5066990;28;20135;-76
2022/05/12 11:34:42;;;;;;;19.42;13.13;;;;;;;;;;5062504;28;20017;-80
2022/05/12 11:37:30;;;;;;;13.57;5.20;;;;;;;;;;5062199;28;20120;-80
2022/05/12 11:39:57;;;;;;;11.05;7.65;;;;;;;;;;5070003;28;20500;-79
2022/05/12 11:42:27;;;;;;;9.75;5.47;;;;;;;;;;5068536;28;20141;-75
2022/05/12 11:44:59;;;;;;;7.15;5.28;;;;;;;;;;5061079;28;20490;-75
2022/05/12 11:47:40;;;;;;;12.10;5.25;;;;;;;;;;5071004;28;20050;-75
2022/05/12 11:50:09;;;;;;;8.52;5.38;;;;;;;;;;5070559;28;20037;-80
2022/05/12 11:52:35;;;;;;;9.07;4.60;;;;;;;;;;5069180;28;20398;-77
2022/05/12 11:55:04;;;;;;;8.05;5.20;;;;;;;;;;5072415;28;20033;-80
2022/05/12 11:57:31;;;;;;;13.38;5.47;;;;;;;;;;5062163;28;20506;-76
2022/05/12 11:59:58;;;;;;;11.13;6.50;;;;;;;;;;5063985;28;20025;-74
2022/05/12 12:02:27;;;;;;;14.43;5.40;;;;;;;;;;5064078;28;20032;-81
2022/05/12 12:04:53;;;;;;;10.75;5.28;;;;;;;;;;5068813;28;20205;-81
2022/05/12 12:07:32;;;;;;;14.52;5.00;;;;;;;;;;5069306;28;20048;-81
2022/05/12 12:09:58;;;;;;;12.13;4.72;;;;;;;;;;5041821;28;20088;-81
2022/05/12 12:12:53;;;;;;;10.68;5.32;;;;;;;;;;5041579;28;20037;-77
2022/05/12 12:15:27;;;;;;;11.02;4.85;;;;;;;;;;5015418;28;20045;-78
2022/05/12 12:17:53;;;;;;;7.03;4.30;;;;;;;;;;5011734;28;20033;-76
2022/05/12 12:20:22;;;;;;;6.25;4.55;;;;;;;;;;5019633;28;20100;-80
2022/05/12 12:22:55;;;;;;;14.00;5.90;;;;;;;;;;5023632;28;20108;-83
2022/05/12 12:25:27;;;;;;;7.90;4.63;;;;;;;;;;5012840;28;20478;-81
2022/05/12 12:27:53;;;;;;;10.23;5.20;;;;;;;;;;5019279;28;20590;-80
2022/05/12 12:30:25;;;;;;;10.10;4.38;;;;;;;;;;5015453;28;20096;-81
2022/05/12 12:33:09;;;;;;;12.82;7.63;;;;;;;;;;5015486;28;20140;-80
2022/05/12 12:35:54;;;;;;;8.23;5.95;;;;;;;;;;5020772;28;20422;-74
2022/05/12 12:38:39;;;;;;;13.40;4.82;;;;;;;;;;5017650;28;20535;-76
2022/05/12 12:41:05;;;;;;;11.38;5.00;;;;;;;;;;5019072;28;20040;-74
2022/05/12 12:43:41;;;;;;;11.70;4.70;;;;;;;;;;5013517;28;20109;-80
2022/05/12 12:46:30;;;;;;;9.13;4.32;;;;;;;;;;5011816;28;20527;-81
2022/05/12 12:49:07;;;;;;;14.82;10.77;;;;;;;;;;4971620;28;20042;-81
2022/05/12 12:51:36;;;;;;;8.65;4.10;;;;;;;;;;4982447;28;20042;-82
2022/05/12 12:57:08;;;;;;;6.55;4.80;;;;;;;;;;4997746;28;20088;-82
2022/05/12 12:59:35;;;;;;;10.20;5.13;;;;;;;;;;4991519;28;20038;-81
2022/05/12 13:02:02;;;;;;;5.90;3.80;;;;;;;;;;4991427;28;20042;-78
2022/05/12 13:04:33;;;;;;;8.93;4.50;;;;;;;;;;4991428;28;20452;-80
2022/05/12 13:07:01;;;;;;;11.07;4.95;;;;;;;;;;5000509;28;20168;-78
2022/05/12 13:09:28;;;;;;;8.82;5.38;;;;;;;;;;4991379;28;20488;-81
2022/05/12 13:12:12;;;;;;;25.30;6.55;;;;;;;;;;4998484;28;20136;-74
2022/05/12 13:14:40;;;;;;;13.75;5.07;;;;;;;;;;5002894;28;20040;-81
2022/05/12 13:17:07;;;;;;;10.73;4.30;;;;;;;;;;4995349;28;20022;-83
2022/05/12 13:19:39;;;;;;;10.23;4.50;;;;;;;;;;5002705;28;20047;-77
2022/05/12 13:22:08;;;;;;;13.75;4.45;;;;;;;;;;4992689;28;20072;-83
2022/05/12 13:24:35;;;;;;;8.65;3.80;;;;;;;;;;4999665;28;20037;-76
2022/05/12 13:27:04;;;;;;;7.75;3.70;;;;;;;;;;5031468;28;20049;-78
2022/05/12 13:29:31;;;;;;;9.93;4.18;;;;;;;;;;5030770;28;20033;-83
2022/05/12 13:32:02;;;;;;;6.55;3.75;;;;;;;;;;5039053;28;20086;-80
2022/05/12 13:34:29;;;;;;;6.85;3.75;;;;;;;;;;5034386;28;20036;-76
2022/05/12 13:36:58;;;;;;;9.00;4.25;;;;;;;;;;5036014;28;20025;-84
2022/05/12 13:39:48;;;;;;;10.75;3.90;;;;;;;;;;5035428;28;20479;-84
2022/05/12 13:42:16;;;;;;;8.57;4.40;;;;;;;;;;5031915;28;20034;-75
2022/05/12 13:44:48;;;;;;;9.13;4.13;;;;;;;;;;5033904;28;20040;-82
2022/05/12 13:47:20;;;;;;;9.70;4.65;;;;;;;;;;5032276;28;20029;-82
2022/05/12 13:49:49;;;;;;;10.35;6.30;;;;;;;;;;5032224;28;20037;-73
2022/05/12 13:52:21;;;;;;;12.60;6.85;;;;;;;;;;5031695;28;20037;-76
2022/05/12 13:54:51;;;;;;;15.73;6.93;;;;;;;;;;5036259;28;20482;-85
2022/05/12 13:57:31;;;;;;;14.38;8.80;;;;;;;;;;5047582;28;20044;-77
2022/05/12 14:00:00;;;;;;;16.15;6.53;;;;;;;;;;5043499;28;20021;-85
2022/05/12 14:02:31;;;;;;;8.80;5.32;;;;;;;;;;5046739;28;20037;-90
2022/05/12 14:05:04;;;;;;;13.10;5.95;;;;;;;;;;5036870;28;20036;-83
2022/05/12 14:07:31;;;;;;;26.27;17.48;;;;;;;;;;5044256;28;20033;-78
2022/05/12 14:10:11;;;;;;;17.05;6.05;;;;;;;;;;5043611;28;20147;-77
2022/05/12 14:19:13;;;;;;;9.93;6.05;;;;;;;;;;5049042;28;20025;-78
2022/05/12 14:20:52;;;;;;;9.32;3.95;;;;;;;;;;5045658;28;20441;-81
2022/05/12 14:23:18;;;;;;;12.82;5.00;;;;;;;;;;5038223;28;20049;-87
2022/05/12 14:25:44;;;;;;;7.70;4.75;;;;;;;;;;5040499;28;20033;-79
2022/05/12 14:28:10;;;;;;;7.30;4.15;;;;;;;;;;5039961;28;20093;-80
2022/05/12 14:30:36;;;;;;;11.07;4.57;;;;;;;;;;5042112;28;20033;-79
2022/05/12 14:33:04;;;;;;;9.13;4.03;;;;;;;;;;5049468;28;20474;-75
2022/05/12 14:35:30;;;;;;;9.45;3.92;;;;;;;;;;5037505;28;20412;-77
2022/05/12 14:37:57;;;;;;;6.88;4.00;;;;;;;;;;5044366;28;20480;-78
2022/05/12 14:40:26;;;;;;;11.90;4.55;;;;;;;;;;5046904;28;20364;-76
2022/05/12 14:42:53;;;;;;;7.60;3.90;;;;;;;;;;5043043;28;20419;-76
2022/05/12 14:45:19;;;;;;;7.70;4.15;;;;;;;;;;5040408;28;20394;-81
2022/05/12 14:47:47;;;;;;;8.25;4.70;;;;;;;;;;5040189;28;20025;-79
2022/05/12 14:50:16;;;;;;;9.27;4.20;;;;;;;;;;5041840;28;20025;-77
2022/05/12 14:52:43;;;;;;;8.55;4.38;;;;;;;;;;5043245;28;20039;-79
2022/05/12 14:55:09;;;;;;;8.43;3.83;;;;;;;;;;5050653;28;20525;-78
2022/05/12 14:57:35;;;;;;;7.20;3.97;;;;;;;;;;5042128;28;20108;-85
2022/05/12 15:00:01;;;;;;;8.88;4.00;;;;;;;;;;5051085;28;20049;-79
2022/05/12 15:02:30;;;;;;;9.40;3.63;;;;;;;;;;5050115;28;20028;-79
2022/05/12 15:04:56;;;;;;;9.07;3.92;;;;;;;;;;5044187;28;20053;-84
2022/05/12 15:07:22;;;;;;;10.93;4.70;;;;;;;;;;5045483;28;20111;-80
2022/05/12 15:09:49;;;;;;;8.57;4.28;;;;;;;;;;5048118;28;20111;-86
2022/05/12 15:12:15;;;;;;;5.68;3.60;;;;;;;;;;5044738;28;20041;-81
2022/05/12 15:14:43;;;;;;;8.02;4.07;;;;;;;;;;5043086;28;20029;-83
2022/05/12 15:17:11;;;;;;;8.40;4.40;;;;;;;;;;5045615;28;20097;-83